FW0745 Weather Reports


time (UTC)temp
C
wind
direction
speed
KPH
gust
KPH
rain 1hr
cm
rain 24hr
cm
rain mn
cm
humidity
%
barometer
mb
20200229101817 15 292 6.4 6.4 0.00 0.00 0.00 40 1010.9
20200229100816 15 292 3.2 4.8 0.00 0.00 0.00 40 1010.7
20200229095817 15 315 3.2 6.4 0.00 0.00 0.00 38 1010.8
20200229094818 15 0 1.6 3.2 0.00 0.00 0.00 40 1010.9
20200229093817 16 0 3.2 4.8 0.00 0.00 0.00 39 1010.8
20200229092817 16 0 1.6 4.8 0.00 0.00 0.00 39 1010.7
20200229091817 16 337 3.2 6.4 0.00 0.00 0.00 39 1010.8
20200229090817 16 0 3.2 6.4 0.00 0.00 0.00 39 1011.1
20200229085817 17 0 4.8 8.0 0.00 0.00 0.00 38 1011.3
20200229084817 17 337 4.8 8.0 0.00 0.00 0.00 39 1011.4
20200229083817 17 337 3.2 4.8 0.00 0.00 0.00 40 1011.5
20200229082817 16 337 3.2 4.8 0.00 0.00 0.00 41 1011.9
20200229081817 17 0.0 0.0 0.00 0.00 0.00 42 1012.1
20200229080817 17 0.0 0.0 0.00 0.00 0.00 38 1012.4
20200229075817 18 337 3.2 4.8 0.00 0.00 0.00 38 1012.5
20200229074817 18 0 1.6 1.6 0.00 0.00 0.00 38 1012.4
20200229073817 17 315 1.6 3.2 0.00 0.00 0.00 38 1012.7
20200229072816 17 0 3.2 4.8 0.00 0.00 0.00 40 1012.6
20200229071817 17 337 6.4 8.0 0.00 0.00 0.00 39 1012.7
20200229070834 17 247 1.6 3.2 0.00 0.00 0.00 40 1012.8
20200229070316 17 247 3.2 3.2 0.00 0.00 0.00 40 1012.9
20200229065316 16 247 3.2 4.8 0.00 0.00 0.00 40 1013.2
20200229064316 17 337 1.6 3.2 0.00 0.00 0.00 39 1013.1
20200229063316 17 0.0 0.0 0.00 0.00 0.00 40 1012.9
20200229062316 17 337 1.6 1.6 0.00 0.00 0.00 39 1012.9
20200229061316 18 337 3.2 4.8 0.00 0.00 0.00 39 1012.7
20200229060315 18 337 3.2 4.8 0.00 0.00 0.00 37 1012.8
20200229055316 18 337 3.2 3.2 0.00 0.00 0.00 37 1012.9
20200229054316 18 337 6.4 8.0 0.00 0.00 0.00 36 1013.2
20200229053316 18 0.0 1.6 0.00 0.00 0.00 38 1013.1
20200229052317 18 0.0 1.6 0.00 0.00 0.00 38 1013.2
20200229051315 18 270 3.2 3.2 0.00 0.00 0.00 37 1013.3
20200229050315 18 270 4.8 6.4 0.00 0.00 0.00 36 1013.1
20200229045316 19 0.0 0.0 0.00 0.00 0.00 36 1013.1
20200229044316 19 0.0 1.6 0.00 0.00 0.00 36 1013.0
20200229043315 20 67 3.2 4.8 0.00 0.00 0.00 36 1013.0
20200229042315 20 67 3.2 6.4 0.00 0.00 0.00 37 1013.0
20200229041315 20 45 4.8 6.4 0.00 0.00 0.00 36 1013.1
20200229040315 20 315 3.2 3.2 0.00 0.00 0.00 38 1013.3
20200229035316 21 315 1.6 3.2 0.00 0.00 0.00 33 1013.3
20200229034315 21 0.0 0.0 0.00 0.00 0.00 32 1013.6
20200229033315 20 315 3.2 4.8 0.00 0.00 0.00 34 1013.5
20200229032316 20 292 9.7 12.9 0.00 0.00 0.00 37 1013.6
20200229031315 20 112 1.6 3.2 0.00 0.00 0.00 38 1012.8
20200229030315 20 0.0 0.0 0.00 0.00 0.00 38 1012.1
20200229025315 21 0.0 1.6 0.00 0.00 0.00 39 1011.9
20200229024315 21 112 3.2 4.8 0.00 0.00 0.00 37 1012.0
20200229023315 21 112 3.2 3.2 0.00 0.00 0.00 34 1012.2
20200229022315 22 112 1.6 3.2 0.00 0.00 0.00 33 1012.1
20200229021315 22 112 1.6 3.2 0.00 0.00 0.00 35 1012.0
20200229020315 22 112 4.8 6.4 0.00 0.00 0.00 40 1011.7
20200229015315 22 112 4.8 6.4 0.00 0.00 0.00 38 1012.1
20200229014315 22 112 3.2 3.2 0.00 0.00 0.00 36 1012.3
20200229013315 23 135 3.2 4.8 0.00 0.00 0.00 36 1012.3
20200229012315 23 135 3.2 4.8 0.00 0.00 0.00 35 1012.4
20200229011315 23 135 4.8 6.4 0.00 0.00 0.00 33 1012.5
20200229010316 24 157 4.8 6.4 0.00 0.00 0.00 31 1012.6
20200229005315 25 157 4.8 6.4 0.00 0.00 0.00 29 1012.3
20200229004316 25 135 6.4 8.0 0.00 0.00 0.00 26 1012.2
20200229003315 26 157 4.8 9.7 0.00 0.00 0.00 24 1012.3
20200229002315 26 135 6.4 11.3 0.00 0.00 0.00 22 1012.4
20200229001315 26 135 8.0 9.7 0.00 0.00 0.00 22 1012.3
20200229000316 26 135 6.4 9.7 0.00 0.00 0.00 20 1012.3
20200228235315 27 135 4.8 8.0 0.00 0.00 0.00 20 1012.3
20200228234315 27 202 4.8 8.0 0.00 0.00 0.00 19 1012.2
20200228233315 27 202 8.0 9.7 0.00 0.00 0.00 19 1012.2
20200228232315 27 202 8.0 12.9 0.00 0.00 0.00 20 1012.1
20200228231315 27 202 9.7 12.9 0.00 0.00 0.00 21 1012.1
20200228230315 27 225 6.4 9.7 0.00 0.00 0.00 23 1012.1
20200228225315 27 225 12.9 17.7 0.00 0.00 0.00 23 1012.5
20200228224316 27 180 9.7 16.1 0.00 0.00 0.00 21 1012.6
20200228223315 27 225 14.5 19.3 0.00 0.00 0.00 17 1012.5
20200228222315 28 202 12.9 17.7 0.00 0.00 0.00 16 1012.4
20200228221315 28 202 14.5 19.3 0.00 0.00 0.00 15 1012.5
20200228220315 28 225 12.9 17.7 0.00 0.00 0.00 14 1012.4
20200228215315 29 202 12.9 22.5 0.00 0.00 0.00 14 1012.3
20200228214317 29 225 14.5 17.7 0.00 0.00 0.00 15 1012.3
20200228213317 30 225 14.5 17.7 0.00 0.00 0.00 15 1012.2
20200228212317 31 225 17.7 22.5 0.00 0.00 0.00 17 1011.9
20200228211317 30 225 6.4 9.7 0.00 0.00 0.00 17 1011.8
20200228210317 30 247 4.8 11.3 0.00 0.00 0.00 15 1011.8
20200228205317 30 247 12.9 22.5 0.00 0.00 0.00 15 1011.8
20200228204317 30 202 11.3 19.3 0.00 0.00 0.00 15 1012.0
20200228203317 30 247 14.5 19.3 0.00 0.00 0.00 14 1012.3
20200228202317 30 180 4.8 9.7 0.00 0.00 0.00 14 1012.4
20200228201317 30 247 11.3 14.5 0.00 0.00 0.00 14 1012.5
20200228200317 30 135 8.0 11.3 0.00 0.00 0.00 15 1012.6
20200228195317 29 135 3.2 6.4 0.00 0.00 0.00 15 1012.7
20200228194317 29 180 4.8 8.0 0.00 0.00 0.00 14 1012.8
20200228193318 29 180 6.4 11.3 0.00 0.00 0.00 13 1013.1
20200228192315 28 202 6.4 8.0 0.00 0.00 0.00 16 1013.3
20200228191317 28 135 8.0 12.9 0.00 0.00 0.00 17 1013.5
20200228190317 27 112 3.2 6.4 0.00 0.00 0.00 17 1013.8
20200228185317 27 112 6.4 11.3 0.00 0.00 0.00 18 1014.0
20200228184317 26 315 3.2 4.8 0.00 0.00 0.00 20 1014.4
20200228183317 26 270 4.8 6.4 0.00 0.00 0.00 22 1014.5
20200228182317 25 337 3.2 6.4 0.00 0.00 0.00 21 1014.6
20200228181317 25 270 3.2 4.8 0.00 0.00 0.00 23 1014.6
20200228180317 25 270 1.6 4.8 0.00 0.00 0.00 23 1014.7
20200228175317 24 270 1.6 4.8 0.00 0.00 0.00 24 1014.8
20200228174317 23 292 1.6 3.2 0.00 0.00 0.00 24 1014.8
20200228173317 22 292 3.2 4.8 0.00 0.00 0.00 25 1014.9
20200228172317 22 270 3.2 6.4 0.00 0.00 0.00 27 1015.0
20200228171317 22 225 4.8 6.4 0.00 0.00 0.00 29 1015.0
20200228170316 21 270 3.2 4.8 0.00 0.00 0.00 31 1014.9
20200228165316 20 270 3.2 4.8 0.00 0.00 0.00 31 1014.7
20200228164316 20 225 1.6 3.2 0.00 0.00 0.00 33 1014.7
20200228163317 20 202 1.6 3.2 0.00 0.00 0.00 34 1014.5
20200228162317 19 0.0 1.6 0.00 0.00 0.00 36 1014.3
20200228161316 18 22 1.6 3.2 0.00 0.00 0.00 38 1014.3
20200228160317 18 22 1.6 1.6 0.00 0.00 0.00 40 1014.3
20200228155316 17 22 1.6 3.2 0.00 0.00 0.00 43 1014.3
20200228154316 16 45 3.2 4.8 0.00 0.00 0.00 50 1014.4
20200228153316 16 45 4.8 6.4 0.00 0.00 0.00 57 1014.4
20200228152316 15 0 1.6 3.2 0.00 0.00 0.00 57 1014.3
20200228151316 15 0.0 1.6 0.00 0.00 0.00 60 1014.5
20200228150316 15 0 1.6 1.6 0.00 0.00 0.00 63 1014.3
20200228145316 14 337 3.2 4.8 0.00 0.00 0.00 67 1014.1
20200228144316 13 337 4.8 6.4 0.00 0.00 0.00 71 1013.9
20200228143317 13 292 1.6 3.2 0.00 0.00 0.00 72 1013.8
20200228142316 13 292 1.6 3.2 0.00 0.00 0.00 73 1013.3
20200228141316 13 292 4.8 4.8 0.00 0.00 0.00 70 1013.3
20200228140316 12 0.0 0.0 0.00 0.00 0.00 74 1012.8
20200228135317 12 0.0 0.0 0.00 0.00 0.00 72 1012.8
20200228134317 12 67 1.6 3.2 0.00 0.00 0.00 73 1012.5
20200228133317 12 0.0 0.0 0.00 0.00 0.00 71 1012.9
20200228132316 12 0.0 1.6 0.00 0.00 0.00 74 1012.8
20200228131317 12 67 1.6 1.6 0.00 0.00 0.00 76 1013.0
20200228130316 12 135 3.2 4.8 0.00 0.00 0.00 75 1012.6
20200228125316 12 135 1.6 3.2 0.00 0.00 0.00 74 1012.6
20200228124316 12 135 1.6 3.2 0.00 0.00 0.00 74 1012.9
20200228123316 13 135 3.2 4.8 0.00 0.00 0.00 72 1012.7
20200228122317 13 135 1.6 3.2 0.00 0.00 0.00 71 1012.7
20200228121316 12 157 3.2 4.8 0.00 0.00 0.00 73 1012.7
20200228120317 12 112 1.6 3.2 0.00 0.00 0.00 68 1012.5
20200228115316 12 112 1.6 3.2 0.00 0.00 0.00 64 1012.6
20200228114316 12 112 1.6 1.6 0.00 0.00 0.00 63 1012.7
20200228113317 12 112 1.6 1.6 0.00 0.00 0.00 58 1012.4
20200228112316 12 0.0 1.6 0.00 0.00 0.00 54 1012.2
20200228111317 12 0.0 1.6 0.00 0.00 0.00 50 1012.1
20200228110317 12 0.0 1.6 0.00 0.00 0.00 49 1011.9
20200228105316 12 112 1.6 3.2 0.00 0.00 0.00 47 1012.0
20200228104317 12 112 3.2 4.8 0.00 0.00 0.00 46 1011.9
20200228103316 13 337 1.6 1.6 0.00 0.00 0.00 47 1011.7
20200228102316 13 315 1.6 3.2 0.00 0.00 0.00 36 1011.7